Main page
METAR-TAF:

METAR-TAF

Airports :

Huesca, Spain

Huesca–Pirineos Airport

latitude: 42-04-32N, longitude: 0-18-58W, elevation: 539 m

Current weather observation

The report was made 39 minutes ago, at 18:30 UTC
Wind 3 kt from the East, varying between East/Northeast and Southeast
Temperature 14°C
Humidity 94%
Pressure 1020 hPa
Visibility 10 km or more

METAR: LEHC 231830Z AUTO 10003KT 070V140 9999 NCD 14/13 Q1020

Time: 21:09 (19:09 UTC)

Forecast

The report was made 11 hours and 9 minutes ago, at 08:00 UTC
Forecast valid from 23 at 09 UTC to 24 at 09 UTC
Wind 8 kt from the East
Visibility 10 km or more
Few clouds at a height of 4000 ft
Temporary
from 23 at 10 UTC to 23 at 17 UTC
Wind 9 kt from the South/Southeast
Probability 40% :
Temporary
from 23 at 12 UTC to 23 at 18 UTC
Few clouds at a height of 3000 ft, Towering cumulus.
Scattered clouds at a height of 4000 ft
rain showers

TAF: LEHC 230800Z 2309/2409 08008KT 9999 FEW040 TX22/2313Z TN12/2406Z TEMPO 2310/2317 15009KT PROB40 TEMPO 2312/2318 SHRA FEW030TCU SCT040

Weather observations and forecasts of more than 4000 airports (METAR and TAF reports).

The available stations are represented by yellow and red dots on the map.

Hover mouse over dot to see the name of the station.

Then click to see weather observations and forecasts.

To change the map : click on the green buttons with a black cross to zoom in, on the green button with a dash to zoom out, or on the green arrows for adjacent maps.


METAR-TAF: